Time;durP1;ratioP1;P1;durP2;ratioP2;P2;SDS_P1;SDS_P2;PMS_P1;PMS_P2;Temp;Humidity;BMP_temperature;BMP_pressure;BME280_temperature;BME280_humidity;BME280_pressure;Samples;Min_cycle;Max_cycle;Signal;HPM_P1;HPM_P2
2022/08/18 00:02:20;;;;;;;4.87;3.90;;;22.10;76.60;;;;;;4991550;28;20450;-67
2022/08/18 00:04:49;;;;;;;5.60;4.40;;;22.10;76.80;;;;;;4992382;28;20458;-67
2022/08/18 00:07:18;;;;;;;6.23;4.50;;;22.10;78.50;;;;;;4991093;28;20440;-66
2022/08/18 00:09:46;;;;;;;5.47;4.30;;;22.00;80.80;;;;;;4992311;28;20500;-66
2022/08/18 00:12:17;;;;;;;5.10;4.03;;;22.00;81.80;;;;;;4992362;28;20439;-68
2022/08/18 00:14:46;;;;;;;5.80;4.07;;;21.80;82.40;;;;;;4992496;28;20453;-66
2022/08/18 00:17:14;;;;;;;6.90;4.43;;;21.80;83.00;;;;;;5003494;28;20440;-67
2022/08/18 00:19:41;;;;;;;11.43;4.60;;;21.70;83.00;;;;;;4992380;28;20952;-67
2022/08/18 00:22:10;;;;;;;4.80;4.10;;;21.70;83.50;;;;;;5005966;28;20952;-66
2022/08/18 00:24:37;;;;;;;5.20;4.10;;;21.60;84.30;;;;;;5012020;28;21007;-66
2022/08/18 00:27:05;;;;;;;5.10;4.60;;;21.50;84.30;;;;;;5000066;28;20578;-66
2022/08/18 00:29:32;;;;;;;5.63;5.03;;;21.40;85.50;;;;;;5015495;28;20449;-66
2022/08/18 00:31:59;;;;;;;6.60;4.73;;;21.30;85.80;;;;;;5001905;28;20450;-66
2022/08/18 00:34:26;;;;;;;6.30;4.77;;;21.30;85.90;;;;;;4995758;28;20798;-67
2022/08/18 00:36:53;;;;;;;5.10;4.40;;;21.30;86.10;;;;;;5004784;28;20485;-68
2022/08/18 00:39:22;;;;;;;6.70;4.50;;;21.30;86.50;;;;;;4976403;28;20486;-67
2022/08/18 00:41:49;;;;;;;5.57;4.90;;;21.20;86.60;;;;;;5003365;28;20504;-67
2022/08/18 00:44:16;;;;;;;7.20;4.90;;;21.20;87.10;;;;;;5015156;28;21084;-66
2022/08/18 00:46:43;;;;;;;5.90;4.77;;;21.20;87.70;;;;;;5002460;28;20449;-66
2022/08/18 00:49:10;;;;;;;5.63;5.00;;;21.20;88.30;;;;;;4995571;28;20451;-66
2022/08/18 00:51:42;;;;;;;6.67;5.43;;;21.20;88.40;;;;;;4995303;28;20438;-70
2022/08/18 00:54:14;;;;;;;6.40;5.07;;;21.20;88.50;;;;;;4976280;28;20442;-66
2022/08/18 00:56:46;;;;;;;4.80;4.23;;;21.20;89.30;;;;;;4990838;28;20477;-66
2022/08/18 00:59:21;;;;;;;6.03;5.00;;;21.10;89.70;;;;;;5005146;28;20450;-67
2022/08/18 01:01:50;;;;;;;7.33;5.30;;;21.00;89.80;;;;;;5002902;28;20453;-66
2022/08/18 01:04:24;;;;;;;5.47;4.47;;;21.00;90.40;;;;;;5015070;28;20441;-66
2022/08/18 01:06:55;;;;;;;7.63;5.00;;;20.90;90.40;;;;;;5006238;28;20502;-66
2022/08/18 01:09:22;;;;;;;4.60;4.20;;;20.90;90.50;;;;;;4995246;28;20496;-67
2022/08/18 01:11:51;;;;;;;5.60;4.60;;;20.90;90.60;;;;;;5001507;28;20513;-67
2022/08/18 01:14:19;;;;;;;7.33;5.63;;;20.80;90.90;;;;;;5014663;28;20598;-68
2022/08/18 01:22:22;;;;;;;5.40;4.80;;;20.80;91.00;;;;;;5014511;28;20579;-67
2022/08/18 01:27:40;;;;;;;6.23;4.70;;;20.70;91.00;;;;;;5004888;28;20943;-67
2022/08/18 01:30:11;;;;;;;4.60;4.20;;;20.70;91.10;;;;;;5006032;28;20827;-67
2022/08/18 01:32:40;;;;;;;5.07;4.53;;;20.70;91.20;;;;;;4994569;28;20458;-67
2022/08/18 01:35:10;;;;;;;6.20;4.67;;;20.60;91.20;;;;;;5001808;28;20454;-66
2022/08/18 01:37:37;;;;;;;5.60;5.10;;;20.50;91.30;;;;;;5012066;28;20451;-67
2022/08/18 01:40:08;;;;;;;6.13;4.67;;;20.50;91.50;;;;;;5013209;28;20448;-67
2022/08/18 01:42:37;;;;;;;8.23;5.07;;;20.50;91.50;;;;;;5004876;28;20449;-67
2022/08/18 01:45:07;;;;;;;5.07;4.10;;;20.50;91.40;;;;;;4994476;28;20452;-66
2022/08/18 01:47:34;;;;;;;6.27;4.83;;;20.40;91.50;;;;;;5002771;28;20450;-67
2022/08/18 01:50:02;;;;;;;5.17;4.67;;;20.40;91.70;;;;;;5013935;28;20442;-67
2022/08/18 01:52:29;;;;;;;5.20;4.03;;;20.40;91.60;;;;;;5005616;28;20438;-66
2022/08/18 01:54:57;;;;;;;5.60;5.00;;;20.30;91.60;;;;;;4994099;28;20496;-67
2022/08/18 01:57:26;;;;;;;6.50;5.80;;;20.30;91.90;;;;;;4994534;28;20442;-67
2022/08/18 01:59:54;;;;;;;5.20;4.47;;;20.20;92.10;;;;;;4994504;28;20437;-67
2022/08/18 02:02:26;;;;;;;5.10;4.23;;;20.20;92.30;;;;;;4999793;28;20822;-67
2022/08/18 02:04:59;;;;;;;5.47;4.77;;;20.20;92.20;;;;;;5013951;28;20477;-67
2022/08/18 02:07:25;;;;;;;4.67;4.07;;;20.20;92.40;;;;;;5006261;28;20433;-67
2022/08/18 02:09:53;;;;;;;5.23;4.57;;;20.10;92.40;;;;;;4994019;28;20439;-66
2022/08/18 02:12:20;;;;;;;5.33;4.13;;;20.10;92.50;;;;;;4998954;28;21016;-67
2022/08/18 02:14:50;;;;;;;6.50;4.80;;;20.10;92.60;;;;;;5013473;28;20523;-67
2022/08/18 02:17:17;;;;;;;5.53;4.00;;;20.00;92.70;;;;;;5003291;28;20480;-67
2022/08/18 02:19:46;;;;;;;6.07;4.53;;;20.00;92.80;;;;;;5013312;28;20448;-66
2022/08/18 02:22:17;;;;;;;8.23;5.27;;;20.00;92.70;;;;;;4999185;28;20450;-67
2022/08/18 02:24:44;;;;;;;6.20;5.10;;;20.00;92.50;;;;;;4993714;28;20508;-67
2022/08/18 02:27:13;;;;;;;6.37;4.83;;;20.00;92.30;;;;;;5001817;28;20448;-66
2022/08/18 02:29:41;;;;;;;6.80;4.57;;;19.90;92.20;;;;;;5011576;28;20428;-67
2022/08/18 02:32:09;;;;;;;6.00;4.33;;;19.90;92.30;;;;;;5011929;28;20754;-66
2022/08/18 02:34:36;;;;;;;6.40;5.40;;;19.80;92.30;;;;;;5009620;28;20490;-66
2022/08/18 02:37:04;;;;;;;6.73;4.73;;;19.80;92.50;;;;;;5001562;28;20480;-66
2022/08/18 02:39:33;;;;;;;5.73;5.23;;;19.70;93.00;;;;;;4993530;28;20499;-66
2022/08/18 02:42:00;;;;;;;6.07;5.47;;;19.70;93.00;;;;;;4993702;28;20447;-67
2022/08/18 02:44:27;;;;;;;6.13;4.30;;;19.60;93.00;;;;;;4993463;28;20471;-67
2022/08/18 02:46:56;;;;;;;5.50;4.60;;;19.60;93.20;;;;;;5008827;28;20442;-66
2022/08/18 02:49:24;;;;;;;5.07;4.40;;;19.60;93.30;;;;;;5013476;28;20544;-67
2022/08/18 02:51:52;;;;;;;6.20;4.67;;;19.60;93.10;;;;;;4997604;28;20916;-66
2022/08/18 02:54:21;;;;;;;6.07;5.13;;;19.60;93.20;;;;;;4993183;28;20982;-67
2022/08/18 02:56:50;;;;;;;7.03;4.13;;;19.50;93.40;;;;;;5005810;28;20478;-66
2022/08/18 02:59:20;;;;;;;8.40;5.33;;;19.50;93.30;;;;;;5013273;28;20530;-67
2022/08/18 03:01:50;;;;;;;5.53;5.00;;;19.50;93.20;;;;;;4999415;28;20830;-66
2022/08/18 03:04:19;;;;;;;6.87;4.30;;;19.50;93.10;;;;;;4993737;28;20447;-66
2022/08/18 03:06:48;;;;;;;5.03;4.27;;;19.50;92.80;;;;;;5004752;28;20529;-66
2022/08/18 03:09:17;;;;;;;7.37;5.17;;;19.50;92.60;;;;;;5012805;28;20540;-66
2022/08/18 03:11:45;;;;;;;6.33;5.43;;;19.40;92.60;;;;;;5000961;28;20493;-66
2022/08/18 03:14:12;;;;;;;6.60;5.30;;;19.40;92.70;;;;;;4993771;28;20529;-66
2022/08/18 03:16:40;;;;;;;6.23;4.70;;;19.40;92.90;;;;;;5002287;28;20507;-66
2022/08/18 03:19:07;;;;;;;5.50;4.90;;;19.40;92.70;;;;;;5013097;28;20439;-66
2022/08/18 03:21:34;;;;;;;5.93;4.57;;;19.20;92.20;;;;;;5010513;28;20949;-66
2022/08/18 03:24:05;;;;;;;5.30;4.63;;;19.00;92.50;;;;;;5012630;28;20479;-66
2022/08/18 03:26:33;;;;;;;6.20;5.60;;;18.90;92.40;;;;;;5001392;28;20451;-66
2022/08/18 03:29:00;;;;;;;6.87;5.80;;;18.80;92.60;;;;;;4993472;28;20439;-66
2022/08/18 03:31:30;;;;;;;6.00;4.53;;;18.70;92.90;;;;;;5001780;28;20467;-67
2022/08/18 03:33:59;;;;;;;7.73;5.80;;;18.60;93.00;;;;;;5012931;28;20900;-66
2022/08/18 03:36:28;;;;;;;7.70;6.20;;;18.70;93.20;;;;;;5002653;28;20515;-66
2022/08/18 03:38:55;;;;;;;9.37;6.53;;;18.70;93.30;;;;;;4993048;28;20789;-67
2022/08/18 03:41:26;;;;;;;8.00;6.37;;;18.70;93.40;;;;;;5000033;28;20533;-67
2022/08/18 03:43:53;;;;;;;7.20;6.50;;;18.70;93.60;;;;;;5012817;28;20932;-67
2022/08/18 03:46:22;;;;;;;8.00;7.20;;;18.80;93.50;;;;;;5009023;28;20473;-66
2022/08/18 03:48:50;;;;;;;9.80;6.70;;;18.80;93.20;;;;;;5012942;28;20434;-66
2022/08/18 03:51:19;;;;;;;10.40;6.70;;;18.60;93.50;;;;;;5002257;28;20440;-66
2022/08/18 03:53:47;;;;;;;6.43;5.83;;;18.50;94.20;;;;;;4993227;28;20471;-71
2022/08/18 03:56:17;;;;;;;6.80;5.30;;;18.50;94.60;;;;;;4999951;28;20474;-66
2022/08/18 03:58:48;;;;;;;7.97;6.57;;;18.40;94.80;;;;;;5012826;28;20836;-66
2022/08/18 04:01:19;;;;;;;11.40;6.33;;;18.40;94.80;;;;;;5003901;28;20935;-66
2022/08/18 04:03:47;;;;;;;6.57;5.90;;;18.40;94.90;;;;;;4996768;28;20473;-66
2022/08/18 04:06:15;;;;;;;6.53;5.73;;;18.40;94.80;;;;;;5001953;28;20522;-66
2022/08/18 04:08:43;;;;;;;9.33;7.03;;;18.40;94.90;;;;;;5016573;28;20937;-66
2022/08/18 04:11:11;;;;;;;7.80;6.10;;;18.40;95.10;;;;;;5008882;28;20497;-66
2022/08/18 04:13:39;;;;;;;7.00;5.90;;;18.40;95.30;;;;;;4996897;28;20450;-66
2022/08/18 04:16:07;;;;;;;11.17;6.47;;;18.40;95.30;;;;;;5000321;28;20983;-66
2022/08/18 04:18:35;;;;;;;6.97;6.07;;;18.40;95.30;;;;;;5015922;28;20442;-66
2022/08/18 04:21:03;;;;;;;7.10;6.10;;;18.40;95.20;;;;;;5011447;28;20745;-67
2022/08/18 04:23:34;;;;;;;8.80;6.10;;;18.40;95.10;;;;;;4996115;28;21799;-66
2022/08/18 04:26:01;;;;;;;6.20;5.50;;;18.50;95.20;;;;;;5016066;28;20492;-66
2022/08/18 04:28:29;;;;;;;7.50;5.93;;;18.50;95.20;;;;;;5010426;28;20485;-70
2022/08/18 04:30:58;;;;;;;7.57;6.33;;;18.60;95.10;;;;;;4996631;28;20479;-66
2022/08/18 04:33:27;;;;;;;10.23;5.87;;;18.60;94.90;;;;;;4994350;28;20534;-66
2022/08/18 04:35:55;;;;;;;6.70;5.70;;;18.60;94.80;;;;;;4992448;28;20498;-68
2022/08/18 04:38:23;;;;;;;6.43;5.83;;;18.60;94.50;;;;;;4993352;28;20855;-66
2022/08/18 04:40:50;;;;;;;7.63;4.53;;;18.70;94.30;;;;;;4994432;28;20554;-66
2022/08/18 04:43:17;;;;;;;5.87;5.13;;;18.50;93.70;;;;;;4994300;28;20782;-70
2022/08/18 04:45:45;;;;;;;6.57;5.80;;;18.40;93.90;;;;;;4993767;28;20939;-66
2022/08/18 04:48:15;;;;;;;6.53;5.83;;;18.50;94.10;;;;;;4994522;28;20534;-66
2022/08/18 04:50:43;;;;;;;7.10;5.67;;;18.50;94.40;;;;;;4993995;28;20447;-67
2022/08/18 04:55:56;;;;;;;6.87;5.80;;;18.60;94.70;;;;;;4991856;28;20435;-66
2022/08/18 04:58:24;;;;;;;6.20;5.60;;;18.70;94.90;;;;;;4992676;28;20475;-69
2022/08/18 05:00:58;;;;;;;6.37;5.60;;;18.70;94.90;;;;;;4990491;28;20436;-66
2022/08/18 05:03:26;;;;;;;6.43;5.57;;;18.80;95.20;;;;;;4993536;28;20528;-70
2022/08/18 05:05:56;;;;;;;6.73;5.80;;;18.90;95.30;;;;;;4993470;28;20427;-68
2022/08/18 05:08:24;;;;;;;7.97;4.90;;;19.00;95.20;;;;;;4993627;28;20491;-69
2022/08/18 05:10:53;;;;;;;6.87;6.17;;;19.00;95.10;;;;;;4995172;28;20435;-66
2022/08/18 05:13:21;;;;;;;7.30;6.47;;;19.00;95.30;;;;;;4993089;28;20432;-67
2022/08/18 05:15:53;;;;;;;6.00;5.20;;;19.00;95.90;;;;;;4994753;28;20475;-66
2022/08/18 05:18:23;;;;;;;7.00;6.30;;;19.00;96.50;;;;;;4994340;28;20432;-67
2022/08/18 05:20:51;;;;;;;7.80;6.97;;;19.00;96.50;;;;;;4990787;28;20519;-68
2022/08/18 05:23:20;;;;;;;7.17;6.47;;;19.10;96.90;;;;;;4992482;28;20467;-66
2022/08/18 05:25:47;;;;;;;7.13;6.43;;;19.10;96.40;;;;;;4989663;28;20541;-66
2022/08/18 05:28:15;;;;;;;8.83;6.93;;;19.10;96.40;;;;;;4993867;28;20992;-66
2022/08/18 05:30:42;;;;;;;7.27;6.57;;;19.10;96.20;;;;;;4992170;28;20475;-66
2022/08/18 05:33:10;;;;;;;7.60;6.50;;;19.10;96.30;;;;;;4993206;28;20470;-66
2022/08/18 05:35:42;;;;;;;7.13;6.43;;;19.10;96.20;;;;;;4992452;28;20444;-66
2022/08/18 05:38:27;;;;;;;6.73;6.03;;;19.10;96.20;;;;;;4992515;28;21002;-66
2022/08/18 05:41:09;;;;;;;8.20;7.07;;;19.10;96.30;;;;;;4989496;28;20460;-67
2022/08/18 05:43:37;;;;;;;8.63;6.50;;;19.20;96.30;;;;;;4993447;28;20467;-66
2022/08/18 05:46:06;;;;;;;7.90;6.73;;;19.20;96.30;;;;;;4992501;28;20534;-67
2022/08/18 05:48:34;;;;;;;7.70;6.90;;;19.20;96.40;;;;;;4991902;28;20626;-66
2022/08/18 05:51:10;;;;;;;8.00;7.20;;;19.20;96.20;;;;;;4996030;28;20519;-66
2022/08/18 05:56:46;;;;;;;7.73;6.57;;;19.30;96.40;;;;;;4929147;28;20504;-66
2022/08/18 05:59:17;;;;;;;9.90;6.97;;;19.30;96.60;;;;;;4992826;28;20924;-67
2022/08/18 06:01:51;;;;;;;10.57;6.60;;;19.30;96.70;;;;;;4992822;28;20523;-67
2022/08/18 06:04:26;;;;;;;8.73;6.87;;;19.30;97.00;;;;;;4994314;28;20468;-67
2022/08/18 06:06:56;;;;;;;9.10;6.50;;;19.30;97.10;;;;;;4976917;28;20479;-68
2022/08/18 06:09:31;;;;;;;9.13;7.10;;;19.40;97.00;;;;;;4993360;28;20441;-67
2022/08/18 06:12:07;;;;;;;7.40;6.40;;;19.50;97.20;;;;;;4988685;28;20990;-67
2022/08/18 06:14:37;;;;;;;7.70;6.90;;;19.50;97.20;;;;;;4987160;28;20458;-67
2022/08/18 06:17:16;;;;;;;8.47;6.17;;;19.60;97.50;;;;;;4993764;28;20442;-67
2022/08/18 06:19:50;;;;;;;6.83;6.13;;;19.70;97.60;;;;;;4998658;28;20483;-67
2022/08/18 06:22:25;;;;;;;8.97;7.33;;;19.80;97.50;;;;;;4995271;28;20439;-67
2022/08/18 06:25:00;;;;;;;9.47;6.50;;;19.80;97.50;;;;;;4997422;28;20520;-66
2022/08/18 06:27:39;;;;;;;9.67;8.37;;;19.90;97.40;;;;;;4987317;28;20518;-68
2022/08/18 06:30:15;;;;;;;10.37;7.80;;;20.00;97.40;;;;;;4991734;28;20435;-67
2022/08/18 06:33:08;;;;;;;7.63;6.83;;;20.20;97.50;;;;;;4992917;28;20437;-67
2022/08/18 06:35:41;;;;;;;7.20;6.50;;;20.30;97.30;;;;;;4989127;28;20438;-67
2022/08/18 06:38:40;;;;;;;7.23;6.13;;;20.40;97.20;;;;;;4990477;28;20899;-67
2022/08/18 06:41:15;;;;;;;10.20;5.90;;;20.60;97.00;;;;;;4992070;28;20437;-66
2022/08/18 06:43:53;;;;;;;6.77;6.10;;;20.70;96.50;;;;;;4991182;28;20446;-66
2022/08/18 06:46:27;;;;;;;6.40;5.70;;;20.80;96.20;;;;;;4994182;28;20534;-66
2022/08/18 06:48:56;;;;;;;7.20;6.23;;;20.90;95.80;;;;;;4994097;28;20583;-67
2022/08/18 06:51:27;;;;;;;6.43;5.83;;;20.90;95.40;;;;;;4993829;28;20480;-67
2022/08/18 06:53:58;;;;;;;8.10;6.20;;;20.90;95.50;;;;;;4994068;28;20474;-66
2022/08/18 06:56:34;;;;;;;6.80;5.70;;;20.90;95.20;;;;;;4993976;28;20533;-67
2022/08/18 06:59:22;;;;;;;6.97;6.33;;;21.10;95.00;;;;;;4993736;28;20443;-69
2022/08/18 07:01:53;;;;;;;6.57;5.43;;;21.30;95.10;;;;;;4993872;28;20439;-66
2022/08/18 07:04:44;;;;;;;8.83;6.10;;;21.40;94.50;;;;;;4993867;28;20446;-67
2022/08/18 07:07:20;;;;;;;5.57;5.07;;;21.60;94.50;;;;;;4993437;28;20569;-66
2022/08/18 07:09:48;;;;;;;6.10;5.40;;;21.80;94.10;;;;;;4993833;28;20541;-66
2022/08/18 07:12:23;;;;;;;6.40;5.67;;;22.00;93.80;;;;;;4993683;28;20474;-66
2022/08/18 07:14:52;;;;;;;6.57;5.97;;;22.20;93.30;;;;;;4993837;28;20525;-66
2022/08/18 07:17:24;;;;;;;5.77;5.00;;;22.40;92.20;;;;;;4993697;28;20543;-67
2022/08/18 07:20:08;;;;;;;6.30;5.40;;;22.60;92.70;;;;;;4993743;28;20442;-67
2022/08/18 07:22:54;;;;;;;7.00;6.30;;;22.80;92.00;;;;;;4993439;28;20471;-67
2022/08/18 07:25:25;;;;;;;8.27;6.20;;;23.00;91.60;;;;;;4993616;28;20857;-66
2022/08/18 07:27:55;;;;;;;8.33;5.90;;;23.20;91.10;;;;;;4993223;28;20495;-66
2022/08/18 07:30:32;;;;;;;6.93;6.23;;;23.30;90.60;;;;;;4993440;28;20947;-66
2022/08/18 07:33:07;;;;;;;6.97;5.97;;;23.40;90.40;;;;;;4993403;28;20435;-67
2022/08/18 07:35:40;;;;;;;9.00;7.33;;;23.40;90.40;;;;;;4993560;28;20497;-67
2022/08/18 07:38:16;;;;;;;6.60;5.83;;;23.50;90.10;;;;;;4995822;28;20506;-67
2022/08/18 07:40:48;;;;;;;7.43;6.17;;;23.70;89.50;;;;;;4996843;28;20447;-67
2022/08/18 07:43:22;;;;;;;7.90;6.20;;;24.00;90.10;;;;;;4997074;28;20491;-67
2022/08/18 07:45:49;;;;;;;7.07;5.73;;;24.20;88.00;;;;;;4997554;28;20486;-67
2022/08/18 07:48:19;;;;;;;7.70;5.93;;;24.40;86.70;;;;;;4997336;28;20483;-67
2022/08/18 07:50:53;;;;;;;6.20;5.33;;;24.50;85.00;;;;;;4997591;28;20450;-67
2022/08/18 07:53:41;;;;;;;5.80;5.20;;;24.50;83.50;;;;;;4997425;28;20526;-67
2022/08/18 07:56:26;;;;;;;7.03;6.20;;;24.40;83.90;;;;;;4997400;28;20443;-67
2022/08/18 07:58:58;;;;;;;6.00;5.00;;;24.40;82.90;;;;;;4997372;28;20864;-68
2022/08/18 08:01:33;;;;;;;5.93;5.33;;;24.50;84.90;;;;;;4997059;28;20478;-67
2022/08/18 08:04:10;;;;;;;6.90;5.20;;;24.60;84.40;;;;;;4997260;28;20497;-67
2022/08/18 08:06:42;;;;;;;7.17;6.47;;;24.70;83.00;;;;;;4997121;28;20493;-67
2022/08/18 08:09:17;;;;;;;5.27;4.70;;;24.70;81.80;;;;;;4996853;28;20570;-67
2022/08/18 08:11:54;;;;;;;6.73;5.87;;;24.70;81.80;;;;;;4997044;28;20538;-67
2022/08/18 08:14:37;;;;;;;5.90;5.40;;;24.60;81.50;;;;;;4997028;28;20526;-67
2022/08/18 08:17:16;;;;;;;6.87;5.70;;;24.60;81.50;;;;;;4997058;28;20530;-67
2022/08/18 08:20:01;;;;;;;7.10;5.20;;;24.60;82.00;;;;;;4996940;28;20530;-67
2022/08/18 08:22:35;;;;;;;6.23;5.33;;;24.70;82.20;;;;;;4996843;28;20734;-67
2022/08/18 08:25:09;;;;;;;5.50;4.93;;;24.80;82.30;;;;;;4996156;28;20989;-67
2022/08/18 08:27:47;;;;;;;6.90;4.90;;;24.90;80.20;;;;;;4996171;28;20514;-67
2022/08/18 08:30:18;;;;;;;7.90;5.57;;;24.90;80.30;;;;;;4996708;28;20494;-67
2022/08/18 08:32:55;;;;;;;6.50;5.20;;;25.00;77.10;;;;;;4996485;28;20517;-67
2022/08/18 08:35:30;;;;;;;8.33;4.93;;;25.00;77.20;;;;;;4993414;28;20470;-67
2022/08/18 08:38:02;;;;;;;5.20;4.70;;;25.00;76.40;;;;;;4995223;28;20489;-67
2022/08/18 08:40:44;;;;;;;6.00;4.70;;;24.80;73.90;;;;;;4995754;28;20479;-68
2022/08/18 08:43:16;;;;;;;6.10;5.07;;;24.70;75.50;;;;;;4993174;28;20804;-67
2022/08/18 08:46:02;;;;;;;5.40;4.67;;;24.70;77.70;;;;;;4999071;28;20502;-67
2022/08/18 08:48:33;;;;;;;5.57;4.97;;;24.80;78.40;;;;;;4997442;28;20522;-67
2022/08/18 08:51:06;;;;;;;5.00;4.50;;;24.90;78.80;;;;;;4998493;28;20474;-67
2022/08/18 08:53:38;;;;;;;6.13;5.20;;;25.10;79.20;;;;;;4998564;28;20439;-67
2022/08/18 08:56:09;;;;;;;9.73;5.10;;;25.60;79.80;;;;;;5001323;28;20526;-67
2022/08/18 08:58:42;;;;;;;6.10;4.13;;;26.10;79.10;;;;;;5005372;28;20534;-66
2022/08/18 09:01:30;;;;;;;11.90;5.07;;;26.60;76.40;;;;;;5003763;28;20864;-67
2022/08/18 09:04:05;;;;;;;5.43;3.80;;;27.40;75.60;;;;;;5004866;28;20481;-67
2022/08/18 09:06:51;;;;;;;6.00;4.60;;;28.00;72.40;;;;;;5001172;28;20504;-67
2022/08/18 09:09:39;;;;;;;8.10;4.67;;;28.60;69.00;;;;;;5004553;28;20527;-67
2022/08/18 09:12:17;;;;;;;5.07;4.50;;;28.70;63.80;;;;;;5002481;28;20446;-69
2022/08/18 09:14:59;;;;;;;5.40;4.57;;;28.60;62.40;;;;;;5003412;28;20838;-67
2022/08/18 09:17:51;;;;;;;5.30;4.17;;;28.50;62.20;;;;;;5005847;28;20441;-68
2022/08/18 09:20:36;;;;;;;5.37;4.87;;;28.50;61.90;;;;;;5005577;28;20479;-67
2022/08/18 09:23:08;;;;;;;5.10;4.60;;;28.40;62.00;;;;;;4999902;28;20850;-67
2022/08/18 09:25:47;;;;;;;5.73;4.20;;;28.40;61.90;;;;;;5002905;28;20954;-67
2022/08/18 09:28:17;;;;;;;4.97;4.30;;;28.40;61.50;;;;;;5005311;28;20526;-68
2022/08/18 09:31:13;;;;;;;4.77;4.30;;;28.20;60.20;;;;;;4997093;28;20451;-67
2022/08/18 09:34:07;;;;;;;5.40;4.90;;;28.00;60.00;;;;;;5000569;28;20481;-67
2022/08/18 09:36:44;;;;;;;5.07;4.57;;;27.90;59.90;;;;;;5000581;28;20801;-67
2022/08/18 09:42:13;;;;;;;11.27;4.53;;;28.00;58.80;;;;;;5006919;28;20422;-68
2022/08/18 09:45:11;;;;;;;5.27;4.77;;;28.00;60.00;;;;;;5007460;28;20534;-66
2022/08/18 09:47:59;;;;;;;6.60;4.90;;;28.00;58.60;;;;;;5004418;28;20489;-67
2022/08/18 09:51:00;;;;;;;5.77;4.77;;;28.00;59.60;;;;;;5005686;28;20431;-67
2022/08/18 09:53:52;;;;;;;5.77;4.03;;;28.00;59.40;;;;;;4976074;28;20443;-67
2022/08/18 09:57:06;;;;;;;4.93;4.43;;;28.30;62.10;;;;;;5004905;28;20542;-67
2022/08/18 09:59:53;;;;;;;6.43;5.70;;;28.70;62.00;;;;;;4999313;28;20440;-67
2022/08/18 10:02:53;;;;;;;5.77;4.53;;;29.10;60.80;;;;;;5007061;28;20436;-67
2022/08/18 10:05:29;;;;;;;5.60;4.30;;;29.40;61.10;;;;;;5007316;28;20498;-67
2022/08/18 10:08:40;;;;;;;7.17;4.13;;;29.80;57.50;;;;;;5007541;28;20548;-67
2022/08/18 10:11:35;;;;;;;4.70;3.73;;;30.10;56.70;;;;;;4991863;28;20544;-67
2022/08/18 10:14:33;;;;;;;4.23;3.83;;;30.20;56.00;;;;;;5003030;28;20443;-67
2022/08/18 10:17:13;;;;;;;6.13;4.90;;;30.40;55.50;;;;;;5003939;28;20486;-67
2022/08/18 10:19:50;;;;;;;5.30;4.67;;;30.50;54.10;;;;;;5014248;28;20489;-67
2022/08/18 10:22:38;;;;;;;5.70;5.17;;;30.40;52.90;;;;;;5014241;28;20448;-68
2022/08/18 10:25:08;;;;;;;5.30;4.80;;;29.90;51.80;;;;;;5013927;28;20474;-67
2022/08/18 10:27:48;;;;;;;4.03;3.63;;;29.50;52.50;;;;;;5014257;28;20454;-67
2022/08/18 10:30:53;;;;;;;5.47;4.30;;;29.20;53.90;;;;;;5014365;28;20473;-67
2022/08/18 10:33:53;;;;;;;5.30;3.97;;;29.20;55.80;;;;;;4989497;28;20496;-67
2022/08/18 10:36:44;;;;;;;4.97;4.47;;;29.50;53.80;;;;;;5013719;28;20534;-67
2022/08/18 10:39:14;;;;;;;4.43;4.00;;;29.70;54.00;;;;;;5013866;28;20445;-67
2022/08/18 10:42:02;;;;;;;4.10;3.70;;;30.00;53.70;;;;;;5013967;28;20475;-68
2022/08/18 10:44:32;;;;;;;5.33;4.57;;;30.30;55.70;;;;;;5013572;28;20475;-67
2022/08/18 10:47:00;;;;;;;5.53;4.30;;;30.70;54.80;;;;;;5013891;28;20833;-68
2022/08/18 10:49:30;;;;;;;4.63;4.13;;;30.80;53.60;;;;;;5013592;28;20997;-67
2022/08/18 10:52:32;;;;;;;4.60;4.10;;;31.00;52.80;;;;;;5013760;28;20565;-67
2022/08/18 10:55:20;;;;;;;6.60;4.10;;;31.10;52.00;;;;;;5013746;28;20470;-67
2022/08/18 10:58:10;;;;;;;6.43;4.40;;;31.30;51.10;;;;;;5013566;28;20443;-67
2022/08/18 11:00:51;;;;;;;4.63;3.87;;;31.40;50.50;;;;;;5013412;28;20431;-67
2022/08/18 11:03:34;;;;;;;4.30;3.90;;;31.30;49.30;;;;;;5013483;28;20453;-67
2022/08/18 11:06:04;;;;;;;4.40;3.83;;;31.00;49.20;;;;;;5013383;28;20488;-67
2022/08/18 11:08:37;;;;;;;5.30;4.80;;;30.90;49.70;;;;;;5012521;28;20498;-67
2022/08/18 11:11:09;;;;;;;9.03;4.37;;;30.80;51.10;;;;;;5013574;28;20443;-66
2022/08/18 11:13:48;;;;;;;6.07;4.63;;;30.80;51.50;;;;;;5010109;28;20447;-67
2022/08/18 11:16:29;;;;;;;7.33;4.87;;;31.10;52.10;;;;;;4993325;28;20473;-67
2022/08/18 11:19:03;;;;;;;4.50;3.77;;;31.40;51.00;;;;;;4993367;28;20480;-67
2022/08/18 11:21:41;;;;;;;4.83;4.43;;;31.40;50.10;;;;;;4994641;28;20454;-68
2022/08/18 11:24:13;;;;;;;4.80;4.30;;;31.70;51.00;;;;;;4993052;28;20522;-68
2022/08/18 11:26:42;;;;;;;5.10;4.60;;;31.90;50.00;;;;;;4993418;28;20446;-67
2022/08/18 11:29:20;;;;;;;4.80;4.40;;;32.30;48.90;;;;;;4992139;28;20989;-67
2022/08/18 11:31:48;;;;;;;4.97;4.47;;;32.60;46.80;;;;;;4994360;28;21018;-69
2022/08/18 11:34:19;;;;;;;5.03;4.53;;;32.80;47.40;;;;;;4993048;28;20440;-67
2022/08/18 11:36:58;;;;;;;4.80;4.20;;;33.00;46.80;;;;;;4992570;28;20858;-67
2022/08/18 11:39:28;;;;;;;4.30;3.83;;;33.20;47.60;;;;;;4973599;28;20475;-68
2022/08/18 11:41:56;;;;;;;4.20;3.80;;;33.40;46.00;;;;;;4999826;28;20497;-68
2022/08/18 11:44:30;;;;;;;5.10;4.37;;;33.60;45.60;;;;;;5006600;28;20486;-67
2022/08/18 11:47:09;;;;;;;6.03;4.50;;;33.70;43.30;;;;;;4996755;28;20485;-67
2022/08/18 11:49:37;;;;;;;5.23;4.57;;;33.40;43.60;;;;;;5013226;28;21090;-67
2022/08/18 11:52:17;;;;;;;4.93;4.43;;;33.30;43.60;;;;;;5013014;28;20470;-67
2022/08/18 11:54:50;;;;;;;4.90;4.40;;;33.20;44.20;;;;;;5013113;28;20499;-67
2022/08/18 11:57:53;;;;;;;4.57;4.10;;;33.10;43.60;;;;;;5013262;28;20454;-67
2022/08/18 12:00:42;;;;;;;7.90;5.70;;;32.60;43.40;;;;;;4952306;29;20448;-67
2022/08/18 12:03:17;;;;;;;5.40;4.90;;;32.10;43.50;;;;;;5010627;28;20858;-67
2022/08/18 12:05:47;;;;;;;5.80;5.20;;;31.40;44.90;;;;;;5013095;28;20442;-66
2022/08/18 12:08:28;;;;;;;4.90;4.37;;;30.80;45.70;;;;;;5012690;28;20486;-67
2022/08/18 12:11:14;;;;;;;6.53;5.87;;;30.40;47.00;;;;;;5013060;28;20438;-67
2022/08/18 12:13:44;;;;;;;7.00;4.90;;;29.90;48.10;;;;;;5012729;28;20435;-67
2022/08/18 12:16:30;;;;;;;7.27;4.90;;;29.40;49.60;;;;;;5012658;28;20459;-67
2022/08/18 12:18:57;;;;;;;6.60;4.93;;;29.10;50.20;;;;;;5012952;28;20474;-67
2022/08/18 12:21:24;;;;;;;5.20;4.70;;;28.80;51.30;;;;;;5012967;28;20501;-69
2022/08/18 12:23:51;;;;;;;4.90;4.40;;;28.60;51.20;;;;;;5014391;28;20466;-66
2022/08/18 12:26:20;;;;;;;6.03;4.87;;;28.40;51.40;;;;;;5016490;28;20531;-67
2022/08/18 12:28:47;;;;;;;4.87;4.37;;;28.30;52.60;;;;;;5016330;28;20810;-67
2022/08/18 12:31:14;;;;;;;4.30;3.90;;;28.40;53.30;;;;;;5016409;28;20550;-67
2022/08/18 12:33:41;;;;;;;5.70;4.40;;;28.30;53.00;;;;;;5016423;28;20480;-66
2022/08/18 12:36:09;;;;;;;4.70;4.10;;;28.40;53.60;;;;;;5016120;28;20848;-67
2022/08/18 12:38:36;;;;;;;5.70;4.53;;;28.50;52.20;;;;;;5016218;28;21036;-66
2022/08/18 12:41:04;;;;;;;5.67;4.10;;;28.60;52.20;;;;;;5015653;28;20478;-66
2022/08/18 12:43:32;;;;;;;4.63;4.17;;;28.60;51.90;;;;;;5015738;28;20438;-67
2022/08/18 12:46:00;;;;;;;6.40;4.93;;;28.70;51.90;;;;;;5016024;28;20497;-67
2022/08/18 12:48:30;;;;;;;4.83;4.30;;;28.80;51.40;;;;;;5016213;28;20459;-67
2022/08/18 12:50:57;;;;;;;5.53;4.70;;;28.80;51.10;;;;;;5016396;28;20454;-67
2022/08/18 12:53:26;;;;;;;5.83;4.53;;;28.70;51.30;;;;;;5016337;28;20458;-67
2022/08/18 12:55:55;;;;;;;4.50;4.10;;;28.50;51.20;;;;;;5015834;28;20522;-67
2022/08/18 12:58:22;;;;;;;5.70;4.27;;;28.30;51.30;;;;;;5016067;28;20475;-67
2022/08/18 13:00:51;;;;;;;4.67;4.13;;;28.10;51.40;;;;;;5016003;28;20530;-66
2022/08/18 13:03:18;;;;;;;5.40;4.40;;;28.00;52.00;;;;;;5015702;28;20438;-68
2022/08/18 13:05:45;;;;;;;9.63;4.90;;;27.90;53.20;;;;;;5015439;28;20910;-67
2022/08/18 13:08:17;;;;;;;7.63;4.50;;;27.80;53.70;;;;;;5015692;28;20450;-67
2022/08/18 13:10:44;;;;;;;5.20;4.70;;;27.80;53.00;;;;;;5015635;28;20482;-67
2022/08/18 13:13:12;;;;;;;4.63;4.17;;;27.70;53.30;;;;;;5015603;28;20442;-67
2022/08/18 13:15:39;;;;;;;6.80;4.57;;;27.70;53.90;;;;;;5015605;28;20435;-67
2022/08/18 13:18:07;;;;;;;6.97;5.00;;;27.60;54.40;;;;;;5015417;28;20538;-67
2022/08/18 13:20:35;;;;;;;5.93;5.20;;;27.60;55.00;;;;;;5015464;28;20463;-67
2022/08/18 13:23:02;;;;;;;7.13;5.30;;;27.60;55.30;;;;;;5015063;28;20439;-67
2022/08/18 13:25:29;;;;;;;12.33;4.80;;;27.50;55.00;;;;;;5015476;28;20435;-67
2022/08/18 13:27:56;;;;;;;6.40;5.60;;;27.50;55.40;;;;;;5015360;28;20636;-67
2022/08/18 13:30:24;;;;;;;5.60;4.93;;;27.50;55.40;;;;;;5015224;28;20490;-67
2022/08/18 13:32:51;;;;;;;7.50;4.90;;;27.50;55.40;;;;;;5015300;28;20499;-67
2022/08/18 13:35:20;;;;;;;6.10;5.47;;;27.40;55.50;;;;;;5014228;28;20474;-67